Time;durP1;ratioP1;P1;durP2;ratioP2;P2;SDS_P1;SDS_P2;PMS_P1;PMS_P2;Temp;Humidity;BMP_temperature;BMP_pressure;BME280_temperature;BME280_humidity;BME280_pressure;Samples;Min_cycle;Max_cycle;Signal;HPM_P1;HPM_P2
2023/10/26 00:00:45;;;;;;;6.60;5.93;;;14.20;99.90;;;;;;4949324;28;20454;-74
2023/10/26 00:03:14;;;;;;;6.97;5.87;;;14.20;99.90;;;;;;4951831;28;20480;-73
2023/10/26 00:05:43;;;;;;;6.73;6.13;;;14.20;99.90;;;;;;4958338;28;21043;-74
2023/10/26 00:08:11;;;;;;;6.40;5.80;;;14.20;99.90;;;;;;4958891;28;20447;-74
2023/10/26 00:10:40;;;;;;;6.87;6.17;;;14.20;99.90;;;;;;4958681;28;20991;-74
2023/10/26 00:13:08;;;;;;;6.87;6.27;;;14.20;99.90;;;;;;4949650;28;20981;-74
2023/10/26 00:15:34;;;;;;;5.50;5.00;;;14.20;99.90;;;;;;4941187;28;20428;-74
2023/10/26 00:18:00;;;;;;;6.20;5.60;;;14.20;99.90;;;;;;4941431;28;20922;-74
2023/10/26 00:20:30;;;;;;;6.23;5.63;;;14.20;99.90;;;;;;4952720;28;20569;-74
2023/10/26 00:22:59;;;;;;;7.00;5.90;;;14.20;99.90;;;;;;4942747;28;20442;-74
2023/10/26 00:25:30;;;;;;;6.47;5.87;;;14.20;99.90;;;;;;4960319;28;20867;-74
2023/10/26 00:27:58;;;;;;;8.40;6.77;;;14.20;99.90;;;;;;4943248;28;20507;-74
2023/10/26 00:30:24;;;;;;;7.80;6.70;;;14.20;99.90;;;;;;4955195;28;20481;-73
2023/10/26 00:32:50;;;;;;;7.23;6.10;;;14.20;99.90;;;;;;4943231;28;20461;-74
2023/10/26 00:35:17;;;;;;;6.43;5.80;;;14.20;99.90;;;;;;4959195;28;20552;-74
2023/10/26 00:37:43;;;;;;;7.50;6.80;;;14.20;99.90;;;;;;4943524;28;20439;-74
2023/10/26 00:40:12;;;;;;;7.00;6.30;;;14.20;99.90;;;;;;4941860;28;20465;-73
2023/10/26 00:42:44;;;;;;;6.97;6.27;;;14.20;99.90;;;;;;4942552;28;21015;-74
2023/10/26 00:45:11;;;;;;;7.50;6.40;;;14.20;99.90;;;;;;4943111;28;20804;-74
2023/10/26 00:47:39;;;;;;;6.93;6.23;;;14.20;99.90;;;;;;4960457;28;20426;-74
2023/10/26 00:50:06;;;;;;;6.70;6.03;;;14.20;99.90;;;;;;4942718;28;21097;-74
2023/10/26 00:52:35;;;;;;;6.63;6.03;;;14.20;99.90;;;;;;4976348;23;20439;-67
2023/10/26 00:55:06;;;;;;;6.10;5.50;;;14.20;99.90;;;;;;4997366;28;20448;-67
2023/10/26 00:57:35;;;;;;;6.30;5.80;;;14.20;99.90;;;;;;4983667;28;20518;-67
2023/10/26 01:00:03;;;;;;;5.53;5.03;;;14.20;99.90;;;;;;4963944;28;20452;-67
2023/10/26 01:02:31;;;;;;;6.70;6.10;;;14.20;99.90;;;;;;4980371;28;20867;-67
2023/10/26 01:04:57;;;;;;;6.40;5.80;;;14.20;99.90;;;;;;4963534;28;20454;-68
2023/10/26 01:07:25;;;;;;;6.70;6.03;;;14.20;99.90;;;;;;4963648;28;20981;-68
2023/10/26 01:09:53;;;;;;;7.80;7.20;;;14.20;99.90;;;;;;4979972;28;21155;-68
2023/10/26 01:12:22;;;;;;;7.67;6.63;;;14.20;99.90;;;;;;4983368;28;20413;-67
2023/10/26 01:14:47;;;;;;;6.60;5.80;;;14.20;99.90;;;;;;4983583;28;20409;-68
2023/10/26 01:17:17;;;;;;;7.37;6.60;;;14.20;99.90;;;;;;4982851;28;20486;-67
2023/10/26 01:19:46;;;;;;;6.30;5.70;;;14.20;99.90;;;;;;4983173;28;20465;-67
2023/10/26 01:22:12;;;;;;;7.50;6.73;;;14.20;99.90;;;;;;4982951;28;20419;-68
2023/10/26 01:24:39;;;;;;;6.37;5.87;;;14.20;99.90;;;;;;4983095;28;20418;-68
2023/10/26 01:27:05;;;;;;;6.73;6.13;;;14.20;99.90;;;;;;4966972;28;21028;-67
2023/10/26 01:29:34;;;;;;;6.43;5.83;;;14.20;99.90;;;;;;4983295;28;20534;-68
2023/10/26 01:32:00;;;;;;;6.33;5.73;;;14.10;99.90;;;;;;4966985;28;20975;-67
2023/10/26 01:34:26;;;;;;;5.77;5.23;;;14.10;99.90;;;;;;4999178;28;20461;-68
2023/10/26 01:36:52;;;;;;;6.67;6.07;;;14.20;99.90;;;;;;4984411;28;20417;-67
2023/10/26 01:39:19;;;;;;;5.90;5.40;;;14.10;99.90;;;;;;4983014;28;20423;-68
2023/10/26 01:41:48;;;;;;;6.30;5.70;;;14.10;99.90;;;;;;4983017;28;21292;-68
2023/10/26 01:44:16;;;;;;;6.10;5.50;;;14.10;99.90;;;;;;4999265;28;20433;-68
2023/10/26 01:46:45;;;;;;;6.90;6.30;;;14.10;99.90;;;;;;4982658;28;20996;-68
2023/10/26 01:49:11;;;;;;;6.33;5.80;;;14.20;99.90;;;;;;4982963;28;20457;-67
2023/10/26 01:51:37;;;;;;;6.20;5.60;;;14.20;99.90;;;;;;4984224;28;20448;-68
2023/10/26 01:54:05;;;;;;;6.13;5.53;;;14.20;99.90;;;;;;4966985;28;20456;-68
2023/10/26 01:56:36;;;;;;;7.20;6.50;;;14.10;99.90;;;;;;4982494;28;21013;-68
2023/10/26 01:59:04;;;;;;;7.00;5.93;;;14.10;99.90;;;;;;4984192;28;20409;-68
2023/10/26 02:01:30;;;;;;;6.93;6.27;;;14.10;99.90;;;;;;4982915;28;20433;-68
2023/10/26 02:03:56;;;;;;;7.00;6.40;;;14.10;99.90;;;;;;4967930;28;20498;-68
2023/10/26 02:06:26;;;;;;;6.53;5.97;;;14.20;99.90;;;;;;4983576;28;20490;-68
2023/10/26 02:08:55;;;;;;;6.83;6.23;;;14.10;99.90;;;;;;4983439;28;20982;-67
2023/10/26 02:11:21;;;;;;;8.03;6.37;;;14.10;99.90;;;;;;4983232;28;20723;-67
2023/10/26 02:13:55;;;;;;;11.10;6.10;;;14.10;99.90;;;;;;4985362;28;21015;-68
2023/10/26 02:16:26;;;;;;;7.33;6.70;;;14.20;99.90;;;;;;4999821;28;20437;-67
2023/10/26 02:18:52;;;;;;;7.07;6.47;;;14.10;99.90;;;;;;4984215;28;20921;-68
2023/10/26 02:21:21;;;;;;;7.10;6.50;;;14.10;99.90;;;;;;4983594;28;20495;-67
2023/10/26 02:23:48;;;;;;;8.10;7.33;;;14.10;99.90;;;;;;4981096;28;20969;-66
2023/10/26 02:26:14;;;;;;;6.90;5.90;;;14.10;99.90;;;;;;4973586;28;20433;-66
2023/10/26 02:28:42;;;;;;;9.90;6.10;;;14.10;99.90;;;;;;4961969;28;20784;-66
2023/10/26 02:31:08;;;;;;;6.30;5.70;;;14.10;99.90;;;;;;4979954;28;20575;-66
2023/10/26 02:33:34;;;;;;;6.73;6.13;;;14.10;99.90;;;;;;4967767;28;20449;-66
2023/10/26 02:36:04;;;;;;;7.00;6.20;;;14.10;99.90;;;;;;4972536;28;20874;-66
2023/10/26 02:38:32;;;;;;;6.80;6.20;;;14.10;99.90;;;;;;4977231;28;20426;-66
2023/10/26 02:41:07;;;;;;;6.80;6.13;;;14.10;99.90;;;;;;4986515;28;20825;-66
2023/10/26 02:43:35;;;;;;;7.00;6.30;;;14.10;99.90;;;;;;4988559;28;20847;-66
2023/10/26 02:46:05;;;;;;;6.47;5.87;;;14.10;99.90;;;;;;4956597;28;21022;-66
2023/10/26 02:48:34;;;;;;;6.53;5.93;;;14.10;99.90;;;;;;4980435;28;20472;-66
2023/10/26 02:51:00;;;;;;;7.07;6.37;;;14.10;99.90;;;;;;4964250;28;20488;-66
2023/10/26 02:53:30;;;;;;;7.13;6.30;;;14.10;99.90;;;;;;4960672;28;20878;-66
2023/10/26 02:55:59;;;;;;;6.70;6.10;;;14.10;99.90;;;;;;4970911;28;20427;-66
2023/10/26 02:58:25;;;;;;;6.20;5.70;;;14.10;99.90;;;;;;4997156;28;20450;-66
2023/10/26 03:00:54;;;;;;;6.27;5.77;;;14.10;99.90;;;;;;4983828;28;21115;-66
2023/10/26 03:03:22;;;;;;;6.10;5.60;;;14.10;99.90;;;;;;4988096;28;20225;-66
2023/10/26 03:05:51;;;;;;;5.90;5.40;;;14.10;99.90;;;;;;4988759;28;20823;-66
2023/10/26 03:08:20;;;;;;;8.03;6.80;;;14.10;99.90;;;;;;4973369;28;20862;-66
2023/10/26 03:10:46;;;;;;;6.07;5.57;;;14.10;99.90;;;;;;4980513;28;20476;-66
2023/10/26 03:13:16;;;;;;;7.47;6.47;;;14.10;99.90;;;;;;4980480;28;20567;-66
2023/10/26 03:15:49;;;;;;;7.23;6.57;;;14.10;99.90;;;;;;4974541;28;20422;-66
2023/10/26 03:18:16;;;;;;;7.13;6.43;;;14.10;99.90;;;;;;4972864;28;20471;-66
2023/10/26 03:20:41;;;;;;;6.50;5.90;;;14.10;99.90;;;;;;4964614;28;20503;-66
2023/10/26 03:23:10;;;;;;;7.27;6.67;;;14.10;99.90;;;;;;4972532;28;20799;-66
2023/10/26 03:25:36;;;;;;;6.57;5.93;;;14.10;99.90;;;;;;4981780;28;20454;-66
2023/10/26 03:28:04;;;;;;;6.87;6.27;;;14.10;99.90;;;;;;4979791;28;20829;-66
2023/10/26 03:30:30;;;;;;;7.10;6.40;;;14.10;99.90;;;;;;4971612;28;20484;-66
2023/10/26 03:32:56;;;;;;;6.10;5.60;;;14.10;99.90;;;;;;4962991;28;20883;-66
2023/10/26 03:35:24;;;;;;;8.67;7.07;;;14.10;99.90;;;;;;4963938;28;20196;-66
2023/10/26 03:37:53;;;;;;;7.00;6.30;;;14.10;99.90;;;;;;4971838;28;20446;-66
2023/10/26 03:40:19;;;;;;;6.90;6.30;;;14.10;99.90;;;;;;4973455;28;20213;-66
2023/10/26 03:42:48;;;;;;;7.97;7.17;;;14.10;99.90;;;;;;4963745;28;21080;-66
2023/10/26 03:45:16;;;;;;;7.73;7.03;;;14.10;99.90;;;;;;4968762;28;20476;-66
2023/10/26 03:47:44;;;;;;;7.63;6.10;;;14.10;99.90;;;;;;4957044;28;20468;-66
2023/10/26 03:50:10;;;;;;;6.70;6.10;;;14.10;99.90;;;;;;4981116;28;20465;-66
2023/10/26 03:52:38;;;;;;;7.43;6.73;;;14.10;99.90;;;;;;4981261;28;20447;-66
2023/10/26 03:55:04;;;;;;;6.50;5.90;;;14.10;99.90;;;;;;4963840;28;20464;-66
2023/10/26 03:57:33;;;;;;;6.60;5.87;;;14.10;99.90;;;;;;4963785;28;20437;-66
2023/10/26 03:59:59;;;;;;;8.47;6.50;;;14.10;99.90;;;;;;4981233;28;20459;-66
2023/10/26 04:02:25;;;;;;;6.60;6.00;;;14.10;99.90;;;;;;4963596;28;20428;-66
2023/10/26 04:04:58;;;;;;;7.00;6.40;;;14.10;99.90;;;;;;4945325;28;20434;-66
2023/10/26 04:07:24;;;;;;;5.90;5.40;;;14.10;99.90;;;;;;4979103;28;20539;-66
2023/10/26 04:09:51;;;;;;;6.30;5.80;;;14.10;99.90;;;;;;4980346;28;20514;-66
2023/10/26 04:12:20;;;;;;;7.07;5.90;;;14.10;99.90;;;;;;4980750;28;20976;-66
2023/10/26 04:14:45;;;;;;;6.50;5.90;;;14.10;99.90;;;;;;4978992;28;20464;-66
2023/10/26 04:17:15;;;;;;;6.40;5.90;;;14.10;99.90;;;;;;4975874;28;20477;-66
2023/10/26 04:19:41;;;;;;;6.40;5.83;;;14.10;99.90;;;;;;4976426;28;20449;-66
2023/10/26 04:22:09;;;;;;;6.60;5.90;;;14.10;99.90;;;;;;4980468;28;20459;-66
2023/10/26 04:24:38;;;;;;;8.17;7.37;;;14.10;99.90;;;;;;4978972;28;20456;-66
2023/10/26 04:27:04;;;;;;;6.30;5.80;;;14.10;99.90;;;;;;4964643;28;20432;-66
2023/10/26 04:29:30;;;;;;;10.17;7.00;;;14.10;99.90;;;;;;4978153;28;20988;-66
2023/10/26 04:31:56;;;;;;;6.67;6.03;;;14.10;99.90;;;;;;4979317;28;20432;-66
2023/10/26 04:34:26;;;;;;;6.00;5.50;;;14.10;99.90;;;;;;4972392;28;20509;-66
2023/10/26 04:36:54;;;;;;;6.70;6.10;;;14.10;99.90;;;;;;4980312;28;21264;-66
2023/10/26 04:39:22;;;;;;;6.50;6.00;;;14.10;99.90;;;;;;4978763;28;20429;-66
2023/10/26 04:41:50;;;;;;;8.20;5.90;;;14.10;99.90;;;;;;4978756;28;20440;-66
2023/10/26 04:44:18;;;;;;;6.30;5.80;;;14.10;99.90;;;;;;4971215;28;20460;-66
2023/10/26 04:46:46;;;;;;;6.27;5.67;;;14.10;99.90;;;;;;4985260;28;20425;-66
2023/10/26 04:49:12;;;;;;;6.20;5.60;;;14.00;99.90;;;;;;4982383;28;20464;-66
2023/10/26 04:51:38;;;;;;;6.23;5.73;;;14.10;99.90;;;;;;4998893;28;21239;-66
2023/10/26 04:54:11;;;;;;;8.50;7.30;;;14.10;99.90;;;;;;4966371;28;21028;-66
2023/10/26 04:56:37;;;;;;;6.93;6.30;;;14.10;99.90;;;;;;4982717;28;20925;-66
2023/10/26 04:59:03;;;;;;;7.17;6.57;;;14.10;99.90;;;;;;4980169;28;20530;-66
2023/10/26 05:01:34;;;;;;;6.57;6.00;;;14.10;99.90;;;;;;4984310;28;20534;-66
2023/10/26 05:04:05;;;;;;;6.23;5.60;;;14.10;99.90;;;;;;4982830;28;20444;-66
2023/10/26 05:06:35;;;;;;;6.33;5.83;;;14.00;99.90;;;;;;4982756;28;20446;-66
2023/10/26 05:09:06;;;;;;;6.60;6.07;;;14.10;99.90;;;;;;4966391;28;20765;-66
2023/10/26 05:11:33;;;;;;;6.13;5.63;;;14.10;99.90;;;;;;4971410;28;20511;-66
2023/10/26 05:13:59;;;;;;;6.23;5.57;;;14.10;99.90;;;;;;4980882;28;20428;-66
2023/10/26 05:16:25;;;;;;;6.37;5.80;;;14.10;99.90;;;;;;4976187;28;20954;-66
2023/10/26 05:18:53;;;;;;;7.17;6.50;;;14.10;99.90;;;;;;4984092;28;20448;-66
2023/10/26 05:21:21;;;;;;;6.03;5.53;;;14.00;99.90;;;;;;4982970;28;20974;-66
2023/10/26 05:23:49;;;;;;;6.53;6.03;;;14.00;99.90;;;;;;4984402;28;20486;-66
2023/10/26 05:26:18;;;;;;;6.70;6.17;;;14.10;99.90;;;;;;5090535;23;20603;-67
2023/10/26 05:28:46;;;;;;;7.43;6.73;;;14.00;99.90;;;;;;4962087;28;20428;-67
2023/10/26 05:31:12;;;;;;;7.57;6.77;;;14.00;99.90;;;;;;4946160;28;20470;-66
2023/10/26 05:33:41;;;;;;;6.20;5.70;;;14.00;99.90;;;;;;4942808;28;21181;-67
2023/10/26 05:36:07;;;;;;;6.27;5.70;;;14.00;99.90;;;;;;4939264;29;20438;-67
2023/10/26 05:38:33;;;;;;;6.50;6.00;;;14.00;99.90;;;;;;4937485;28;20974;-67
2023/10/26 05:41:06;;;;;;;6.83;6.20;;;14.00;99.90;;;;;;4938623;28;20447;-67
2023/10/26 05:43:32;;;;;;;7.83;5.80;;;14.00;99.90;;;;;;4938673;28;20725;-67
2023/10/26 05:46:04;;;;;;;7.00;6.40;;;14.00;99.90;;;;;;4942065;28;20457;-67
2023/10/26 05:48:34;;;;;;;5.90;5.40;;;14.00;99.90;;;;;;4932892;29;20783;-67
2023/10/26 05:50:59;;;;;;;7.00;5.30;;;14.00;99.90;;;;;;4936527;28;20470;-67
2023/10/26 05:53:26;;;;;;;5.83;5.30;;;14.00;99.90;;;;;;4943891;28;20433;-67
2023/10/26 05:55:57;;;;;;;7.23;6.27;;;14.00;99.90;;;;;;4950098;28;20198;-67
2023/10/26 05:58:23;;;;;;;6.97;6.30;;;14.00;99.90;;;;;;4943673;28;20429;-70
2023/10/26 06:00:51;;;;;;;5.70;5.20;;;14.00;99.90;;;;;;4941599;28;20606;-69
2023/10/26 06:03:20;;;;;;;8.03;7.20;;;14.00;99.90;;;;;;4950618;28;20431;-67
2023/10/26 06:05:48;;;;;;;6.33;5.73;;;14.00;99.90;;;;;;4943148;28;20433;-68
2023/10/26 06:08:14;;;;;;;6.43;5.83;;;14.00;99.90;;;;;;4950772;28;20889;-67
2023/10/26 06:10:40;;;;;;;6.17;5.57;;;14.00;99.90;;;;;;4927789;28;20475;-68
2023/10/26 06:13:09;;;;;;;6.90;5.30;;;14.00;99.90;;;;;;4925912;28;20688;-68
2023/10/26 06:15:36;;;;;;;7.10;6.40;;;14.00;99.90;;;;;;4932942;28;20968;-67
2023/10/26 06:18:02;;;;;;;6.70;5.90;;;14.00;99.90;;;;;;4946377;28;20431;-67
2023/10/26 06:20:33;;;;;;;5.77;5.27;;;14.00;99.90;;;;;;4949849;28;20455;-67
2023/10/26 06:23:02;;;;;;;6.50;5.90;;;14.00;99.90;;;;;;4943657;28;20973;-67
2023/10/26 06:25:31;;;;;;;7.50;6.80;;;14.00;99.90;;;;;;4942269;28;21031;-67
2023/10/26 06:28:01;;;;;;;6.50;5.90;;;14.00;99.90;;;;;;4949422;28;20449;-68
2023/10/26 06:30:27;;;;;;;6.67;6.10;;;14.00;99.90;;;;;;4924237;29;20489;-67
2023/10/26 06:32:56;;;;;;;6.90;6.37;;;14.00;99.90;;;;;;4922074;28;20451;-68
2023/10/26 06:35:24;;;;;;;6.00;5.50;;;14.00;99.90;;;;;;4944528;28;20434;-67
2023/10/26 06:37:55;;;;;;;7.20;6.60;;;14.00;99.90;;;;;;4920073;29;20865;-68
2023/10/26 06:40:21;;;;;;;6.43;5.83;;;14.00;99.90;;;;;;4929942;28;20490;-68
2023/10/26 06:42:51;;;;;;;7.60;6.90;;;14.00;99.90;;;;;;4944939;28;20876;-69
2023/10/26 06:45:18;;;;;;;8.93;7.07;;;14.00;99.90;;;;;;4929438;28;20467;-67
2023/10/26 06:47:43;;;;;;;6.57;6.03;;;14.00;99.90;;;;;;4929551;28;20430;-68
2023/10/26 06:50:10;;;;;;;6.73;6.10;;;14.00;99.90;;;;;;4935741;28;20469;-67
2023/10/26 06:52:38;;;;;;;6.57;6.00;;;14.00;99.90;;;;;;4949716;28;20981;-68
2023/10/26 06:55:04;;;;;;;7.47;5.90;;;14.00;99.90;;;;;;4942490;28;20444;-69
2023/10/26 06:57:35;;;;;;;7.17;6.40;;;14.00;99.90;;;;;;4942139;28;20450;-70
2023/10/26 07:00:06;;;;;;;6.90;6.30;;;14.00;99.90;;;;;;4942553;28;20451;-69
2023/10/26 07:02:34;;;;;;;7.40;6.70;;;14.00;99.90;;;;;;4942062;28;20464;-69
2023/10/26 07:05:02;;;;;;;6.93;6.33;;;14.00;99.90;;;;;;4940042;28;20438;-69
2023/10/26 07:07:28;;;;;;;6.83;6.13;;;14.00;99.90;;;;;;4948897;28;20816;-69
2023/10/26 07:09:55;;;;;;;6.37;5.70;;;14.00;99.90;;;;;;4955977;28;20810;-69
2023/10/26 07:12:24;;;;;;;6.50;6.00;;;14.00;99.90;;;;;;4940943;28;21153;-69
2023/10/26 07:14:56;;;;;;;7.83;5.47;;;14.00;99.90;;;;;;4941894;28;20823;-69
2023/10/26 07:17:26;;;;;;;5.93;5.43;;;14.00;99.90;;;;;;4918772;29;20457;-69
2023/10/26 07:19:52;;;;;;;7.60;6.80;;;14.00;99.90;;;;;;4950128;28;20458;-69
2023/10/26 07:22:18;;;;;;;7.60;6.87;;;14.00;99.90;;;;;;4940836;28;20958;-69
2023/10/26 07:24:44;;;;;;;6.03;5.43;;;14.00;99.90;;;;;;4940333;28;20549;-69
2023/10/26 07:27:13;;;;;;;6.33;5.73;;;14.00;99.90;;;;;;4932772;29;20584;-69
2023/10/26 07:29:39;;;;;;;7.30;6.60;;;14.00;99.90;;;;;;4940119;28;20893;-69
2023/10/26 07:32:07;;;;;;;6.23;5.63;;;14.00;99.90;;;;;;4941798;28;20436;-69
2023/10/26 07:34:36;;;;;;;8.30;6.13;;;14.00;99.90;;;;;;4923895;29;20439;-69
2023/10/26 07:37:07;;;;;;;5.90;5.40;;;14.00;99.90;;;;;;4942209;28;21019;-69
2023/10/26 07:39:38;;;;;;;6.27;5.67;;;14.00;99.90;;;;;;4940513;28;20455;-69
2023/10/26 07:42:06;;;;;;;7.20;6.50;;;14.00;99.90;;;;;;4927691;28;20458;-69
2023/10/26 07:44:33;;;;;;;7.30;6.60;;;14.00;99.90;;;;;;4946342;28;20430;-69
2023/10/26 07:46:59;;;;;;;7.23;5.30;;;14.00;99.90;;;;;;4941017;28;20426;-69
2023/10/26 07:49:28;;;;;;;6.73;6.13;;;14.00;99.90;;;;;;4922996;29;20456;-69
2023/10/26 07:51:58;;;;;;;8.57;6.40;;;13.90;99.90;;;;;;4939756;28;20439;-69
2023/10/26 07:54:24;;;;;;;6.57;5.97;;;14.00;99.90;;;;;;4949397;28;20494;-69
2023/10/26 07:56:55;;;;;;;5.80;5.30;;;14.00;99.90;;;;;;4941139;28;20445;-69
2023/10/26 07:59:24;;;;;;;10.93;6.03;;;14.00;99.90;;;;;;4930151;28;20574;-69
2023/10/26 08:01:50;;;;;;;6.60;6.00;;;14.00;99.90;;;;;;4935465;28;20841;-69
2023/10/26 08:04:16;;;;;;;6.87;6.17;;;14.00;99.90;;;;;;4923833;29;20841;-69
2023/10/26 08:06:44;;;;;;;7.47;6.40;;;14.00;99.90;;;;;;4930286;28;20481;-69
2023/10/26 08:09:10;;;;;;;6.53;6.03;;;14.00;99.90;;;;;;4924159;28;20483;-69
2023/10/26 08:11:37;;;;;;;6.90;6.20;;;14.00;99.90;;;;;;4941641;28;20467;-69
2023/10/26 08:14:03;;;;;;;6.90;6.27;;;14.00;99.90;;;;;;4940031;28;20652;-69
2023/10/26 08:16:29;;;;;;;7.20;6.50;;;14.00;99.90;;;;;;4923527;29;20484;-69
2023/10/26 08:18:57;;;;;;;9.10;7.00;;;14.00;99.90;;;;;;4932019;28;20981;-69
2023/10/26 08:21:26;;;;;;;6.80;6.20;;;14.00;99.90;;;;;;4938792;28;20458;-69
2023/10/26 08:23:54;;;;;;;6.60;5.90;;;14.00;99.90;;;;;;4942345;28;20841;-69
2023/10/26 08:26:20;;;;;;;6.77;6.17;;;14.00;99.90;;;;;;4950371;28;20647;-69
2023/10/26 08:28:46;;;;;;;6.33;5.73;;;14.00;99.90;;;;;;4954107;28;20790;-69
2023/10/26 08:31:12;;;;;;;8.20;7.20;;;14.00;99.90;;;;;;4944187;28;20768;-69
2023/10/26 08:33:38;;;;;;;8.07;7.27;;;14.00;99.90;;;;;;4945474;28;20490;-69
2023/10/26 08:36:08;;;;;;;7.67;6.90;;;14.00;99.90;;;;;;4943773;28;20758;-69
2023/10/26 08:38:38;;;;;;;7.53;5.90;;;14.00;99.90;;;;;;4944973;28;21324;-69
2023/10/26 08:41:05;;;;;;;6.60;6.00;;;14.00;99.90;;;;;;4917420;29;20613;-69
2023/10/26 08:43:34;;;;;;;7.63;6.93;;;14.00;99.90;;;;;;4945511;28;20536;-69
2023/10/26 08:46:04;;;;;;;6.80;6.20;;;14.00;99.90;;;;;;4944840;28;20457;-69
2023/10/26 08:48:38;;;;;;;8.27;6.10;;;14.00;99.90;;;;;;4945236;28;21073;-69
2023/10/26 08:51:13;;;;;;;6.80;6.20;;;14.00;99.90;;;;;;4924982;28;20485;-69
2023/10/26 08:53:39;;;;;;;6.67;6.03;;;14.00;99.90;;;;;;4915092;29;20832;-69
2023/10/26 08:56:09;;;;;;;7.47;6.77;;;14.00;99.90;;;;;;4951222;28;20433;-69
2023/10/26 08:58:35;;;;;;;7.37;6.70;;;14.00;99.90;;;;;;4940932;28;20456;-69
2023/10/26 09:01:04;;;;;;;8.40;7.53;;;14.00;99.90;;;;;;4937337;28;20497;-69
2023/10/26 09:03:30;;;;;;;6.80;6.10;;;14.00;99.90;;;;;;4943590;28;20426;-69
2023/10/26 09:05:58;;;;;;;9.63;6.57;;;14.00;99.90;;;;;;4927556;28;20964;-69
2023/10/26 09:08:27;;;;;;;6.93;5.80;;;14.00;99.90;;;;;;4927480;29;20980;-69
2023/10/26 09:10:56;;;;;;;8.77;7.40;;;14.00;99.90;;;;;;4940362;28;20504;-69
2023/10/26 09:13:27;;;;;;;7.87;7.13;;;14.00;99.90;;;;;;4938325;29;20438;-69
2023/10/26 09:15:57;;;;;;;6.83;6.13;;;14.00;99.90;;;;;;4941783;28;20430;-69
2023/10/26 09:21:28;;;;;;;6.47;5.87;;;14.00;99.90;;;;;;3887658;26;20855;-73
2023/10/26 09:23:56;;;;;;;8.10;6.43;;;14.00;99.90;;;;;;4984355;28;20518;-73
2023/10/26 09:26:25;;;;;;;6.70;6.00;;;14.00;99.90;;;;;;4983237;28;20410;-71
2023/10/26 09:28:59;;;;;;;6.67;6.00;;;14.00;99.90;;;;;;4984686;28;20416;-71
2023/10/26 09:31:27;;;;;;;6.73;5.73;;;14.00;99.90;;;;;;4983247;28;20861;-71
2023/10/26 09:34:08;;;;;;;6.70;5.73;;;14.00;99.90;;;;;;4983577;28;20425;-71
2023/10/26 09:36:34;;;;;;;6.03;5.53;;;14.00;99.90;;;;;;4982933;28;21002;-71
2023/10/26 09:39:04;;;;;;;5.70;5.20;;;14.00;99.90;;;;;;4982470;28;20414;-71
2023/10/26 09:41:31;;;;;;;6.47;5.87;;;14.00;99.90;;;;;;4982741;28;20907;-71
2023/10/26 09:43:59;;;;;;;5.37;4.97;;;14.00;99.90;;;;;;4983190;28;20482;-72
2023/10/26 09:46:25;;;;;;;5.73;5.13;;;14.00;99.90;;;;;;4984763;28;20430;-71
2023/10/26 09:48:52;;;;;;;6.77;6.17;;;14.00;99.90;;;;;;4967010;28;20418;-71
2023/10/26 09:51:21;;;;;;;6.57;5.97;;;14.00;99.90;;;;;;4965874;28;20512;-71
2023/10/26 09:53:48;;;;;;;6.60;6.00;;;14.00;99.90;;;;;;4966588;28;20461;-71
2023/10/26 09:56:22;;;;;;;6.40;5.80;;;14.10;99.90;;;;;;4983992;28;20413;-72
2023/10/26 09:58:51;;;;;;;6.33;5.73;;;14.10;99.90;;;;;;4966274;28;20521;-72
2023/10/26 10:01:37;;;;;;;5.40;5.00;;;14.10;99.90;;;;;;4981547;28;20454;-72
2023/10/26 10:04:09;;;;;;;5.57;5.07;;;14.10;99.90;;;;;;4981535;28;20436;-71
2023/10/26 10:06:51;;;;;;;5.80;5.30;;;14.10;99.90;;;;;;4965579;28;20441;-71
2023/10/26 10:09:21;;;;;;;5.00;4.60;;;14.10;99.90;;;;;;4965328;28;20959;-71
2023/10/26 10:12:09;;;;;;;4.90;4.50;;;14.10;99.90;;;;;;4983072;28;20533;-71
2023/10/26 10:14:48;;;;;;;6.07;5.57;;;14.10;99.90;;;;;;4982821;28;20435;-73
2023/10/26 10:17:20;;;;;;;6.30;5.80;;;14.10;99.90;;;;;;4981603;28;20841;-72
2023/10/26 10:20:18;;;;;;;6.33;5.73;;;14.10;99.90;;;;;;4965330;28;20456;-72
2023/10/26 10:22:47;;;;;;;5.73;5.23;;;14.10;99.90;;;;;;4983514;28;20459;-72
2023/10/26 10:25:17;;;;;;;7.53;6.83;;;14.10;99.90;;;;;;4982212;28;20422;-73
2023/10/26 10:27:48;;;;;;;5.90;5.40;;;14.10;99.90;;;;;;4982485;28;20472;-72
2023/10/26 10:30:16;;;;;;;5.97;5.10;;;14.10;99.90;;;;;;4983090;28;20746;-72
2023/10/26 10:32:46;;;;;;;5.80;5.33;;;14.10;99.90;;;;;;4982058;28;20811;-72
2023/10/26 10:35:43;;;;;;;4.87;4.47;;;14.20;99.90;;;;;;4982778;28;20422;-73
2023/10/26 10:38:18;;;;;;;5.27;4.77;;;14.20;99.90;;;;;;4982898;28;20476;-73
2023/10/26 10:40:53;;;;;;;5.60;5.10;;;14.20;99.90;;;;;;4981698;28;20457;-73
2023/10/26 10:43:38;;;;;;;5.90;5.40;;;14.20;99.90;;;;;;4965462;28;20447;-72
2023/10/26 10:46:15;;;;;;;5.23;4.80;;;14.20;99.90;;;;;;4983550;28;20424;-73
2023/10/26 10:49:01;;;;;;;4.40;4.10;;;14.20;99.90;;;;;;4981765;28;20436;-77
2023/10/26 10:51:35;;;;;;;4.87;4.20;;;14.20;99.90;;;;;;4981451;28;20472;-72
2023/10/26 10:54:04;;;;;;;5.03;4.63;;;14.20;99.90;;;;;;4964992;28;20448;-75
2023/10/26 10:56:44;;;;;;;4.73;4.33;;;14.20;99.90;;;;;;4981758;28;20507;-76
2023/10/26 10:59:20;;;;;;;6.93;4.97;;;14.20;99.90;;;;;;4981111;28;20440;-72
2023/10/26 11:01:49;;;;;;;4.50;4.10;;;14.30;99.90;;;;;;4965375;28;20448;-71
2023/10/26 11:04:21;;;;;;;5.40;4.90;;;14.20;99.90;;;;;;4982668;28;20740;-73
2023/10/26 11:06:49;;;;;;;4.93;4.53;;;14.20;99.90;;;;;;4965222;28;20483;-71
2023/10/26 11:09:29;;;;;;;4.70;4.30;;;14.30;99.90;;;;;;4964326;28;20773;-72
2023/10/26 11:11:55;;;;;;;4.60;4.20;;;14.30;99.90;;;;;;4963180;28;20602;-71
2023/10/26 11:14:28;;;;;;;5.23;4.83;;;14.30;99.90;;;;;;4979849;28;20523;-70
2023/10/26 11:16:55;;;;;;;4.70;4.30;;;14.30;99.90;;;;;;4982586;28;21143;-70
2023/10/26 11:19:21;;;;;;;5.07;4.77;;;14.30;99.90;;;;;;4981711;28;20438;-70
2023/10/26 11:21:53;;;;;;;3.97;3.67;;;14.30;99.90;;;;;;4981139;28;20421;-70
2023/10/26 11:27:46;;;;;;;4.00;3.60;;;14.30;99.90;;;;;;4374861;26;20505;-71
2023/10/26 11:30:12;;;;;;;3.80;3.50;;;14.30;99.90;;;;;;4962206;28;20883;-72
2023/10/26 11:32:39;;;;;;;3.70;3.40;;;14.30;99.90;;;;;;4964511;28;21274;-71
2023/10/26 11:35:17;;;;;;;4.17;3.87;;;14.30;99.90;;;;;;4951907;28;20429;-72
2023/10/26 11:37:58;;;;;;;3.73;3.50;;;14.40;99.90;;;;;;4977800;28;20472;-72
2023/10/26 11:40:33;;;;;;;3.17;2.97;;;14.40;99.90;;;;;;4951495;28;20824;-74
2023/10/26 11:43:06;;;;;;;4.13;3.83;;;14.40;99.90;;;;;;4962157;28;20465;-72
2023/10/26 11:45:50;;;;;;;3.53;3.33;;;14.40;99.90;;;;;;4945915;28;20584;-72
2023/10/26 11:48:33;;;;;;;3.47;3.27;;;14.40;99.90;;;;;;4962920;28;20441;-72
2023/10/26 11:51:06;;;;;;;3.90;3.60;;;14.40;99.90;;;;;;4962198;28;20896;-72
2023/10/26 11:53:32;;;;;;;4.33;4.03;;;14.40;99.90;;;;;;4941847;29;20441;-72
2023/10/26 11:56:24;;;;;;;3.63;3.43;;;14.40;99.90;;;;;;4943658;28;20826;-72
2023/10/26 11:58:52;;;;;;;3.90;3.60;;;14.40;99.90;;;;;;4945741;28;20465;-72
2023/10/26 12:01:18;;;;;;;3.67;3.40;;;14.40;99.90;;;;;;4977259;28;20508;-72
2023/10/26 12:03:50;;;;;;;3.93;3.53;;;14.50;99.90;;;;;;4944730;28;21019;-72
2023/10/26 12:06:16;;;;;;;4.37;3.97;;;14.40;99.90;;;;;;4953116;28;20437;-72
2023/10/26 12:08:42;;;;;;;4.20;3.90;;;14.50;99.90;;;;;;4960665;28;20476;-72
2023/10/26 12:11:11;;;;;;;4.00;3.70;;;14.50;99.90;;;;;;4976143;28;20617;-72
2023/10/26 12:13:42;;;;;;;3.90;3.60;;;14.50;99.90;;;;;;4960750;28;20933;-72
2023/10/26 12:16:10;;;;;;;4.60;4.17;;;14.50;99.90;;;;;;4960940;28;20449;-72
2023/10/26 12:18:37;;;;;;;4.50;4.10;;;14.50;99.90;;;;;;4961694;28;20533;-73
2023/10/26 12:21:08;;;;;;;4.43;4.03;;;14.50;99.90;;;;;;4949749;28;20975;-73
2023/10/26 12:23:37;;;;;;;3.93;3.63;;;14.50;99.90;;;;;;4977516;28;20456;-74
2023/10/26 12:26:05;;;;;;;3.53;3.30;;;14.50;99.90;;;;;;4960987;28;20466;-73
2023/10/26 12:28:32;;;;;;;4.00;3.70;;;14.50;99.90;;;;;;4961071;28;20427;-73
2023/10/26 12:31:02;;;;;;;3.93;3.53;;;14.50;99.90;;;;;;4960262;28;21083;-73
2023/10/26 12:33:32;;;;;;;3.47;3.20;;;14.50;99.90;;;;;;4960984;28;20506;-74
2023/10/26 12:35:58;;;;;;;4.07;3.77;;;14.50;99.90;;;;;;4945332;28;20472;-73
2023/10/26 12:38:25;;;;;;;4.10;3.80;;;14.50;99.90;;;;;;4960349;28;20481;-73
2023/10/26 12:40:51;;;;;;;3.77;3.47;;;14.50;99.90;;;;;;4962606;28;20454;-73
2023/10/26 12:43:18;;;;;;;3.57;3.30;;;14.60;99.90;;;;;;4961282;28;20437;-73
2023/10/26 12:45:43;;;;;;;4.53;4.17;;;14.60;99.90;;;;;;4960958;28;21064;-73
2023/10/26 12:48:18;;;;;;;3.90;3.60;;;14.60;99.90;;;;;;4944083;28;20537;-75
2023/10/26 12:50:53;;;;;;;4.60;4.20;;;14.60;99.90;;;;;;4976496;28;20477;-75
2023/10/26 12:53:21;;;;;;;4.17;3.87;;;14.60;99.90;;;;;;4968516;28;20471;-74
2023/10/26 12:55:47;;;;;;;4.37;4.07;;;14.60;99.90;;;;;;4977798;28;20560;-73
2023/10/26 12:58:13;;;;;;;4.17;3.87;;;14.60;99.90;;;;;;4962278;28;20979;-74
2023/10/26 13:00:41;;;;;;;3.50;3.30;;;14.60;99.90;;;;;;4961064;28;20871;-74